sensor_id;sensor_type;location;lat;lon;timestamp;P1;durP1;ratioP1;P2;durP2;ratioP2
17658;SDS011;8948;51.534;8.262;2022-10-16T00:02:58;5.32;;;2.20;;
17658;SDS011;8948;51.534;8.262;2022-10-16T00:07:58;4.60;;;1.98;;
17658;SDS011;8948;51.534;8.262;2022-10-16T00:12:59;2.90;;;1.80;;
17658;SDS011;8948;51.534;8.262;2022-10-16T00:18:00;6.93;;;1.95;;
17658;SDS011;8948;51.534;8.262;2022-10-16T00:23:00;6.95;;;2.13;;
17658;SDS011;8948;51.534;8.262;2022-10-16T00:28:01;3.42;;;2.15;;
17658;SDS011;8948;51.534;8.262;2022-10-16T00:33:01;4.00;;;2.17;;
17658;SDS011;8948;51.534;8.262;2022-10-16T00:38:02;5.10;;;2.13;;
17658;SDS011;8948;51.534;8.262;2022-10-16T00:43:04;4.05;;;2.00;;
17658;SDS011;8948;51.534;8.262;2022-10-16T00:48:31;3.80;;;2.08;;
17658;SDS011;8948;51.534;8.262;2022-10-16T00:53:32;3.85;;;1.80;;
17658;SDS011;8948;51.534;8.262;2022-10-16T00:58:33;4.28;;;1.52;;
17658;SDS011;8948;51.534;8.262;2022-10-16T01:03:35;4.70;;;1.80;;
17658;SDS011;8948;51.534;8.262;2022-10-16T01:08:44;8.45;;;2.10;;
17658;SDS011;8948;51.534;8.262;2022-10-16T01:14:06;3.80;;;1.80;;
17658;SDS011;8948;51.534;8.262;2022-10-16T01:19:36;4.40;;;1.58;;
17658;SDS011;8948;51.534;8.262;2022-10-16T01:25:01;4.63;;;1.75;;
17658;SDS011;8948;51.534;8.262;2022-10-16T01:35:27;7.78;;;1.85;;
17658;SDS011;8948;51.534;8.262;2022-10-16T01:40:32;6.47;;;1.80;;
17658;SDS011;8948;51.534;8.262;2022-10-16T01:45:35;3.97;;;1.77;;
17658;SDS011;8948;51.534;8.262;2022-10-16T01:50:37;3.40;;;1.85;;
17658;SDS011;8948;51.534;8.262;2022-10-16T01:55:40;3.65;;;1.70;;
17658;SDS011;8948;51.534;8.262;2022-10-16T02:00:46;4.30;;;1.60;;
17658;SDS011;8948;51.534;8.262;2022-10-16T02:05:54;5.57;;;1.80;;
17658;SDS011;8948;51.534;8.262;2022-10-16T02:10:57;3.42;;;1.60;;
17658;SDS011;8948;51.534;8.262;2022-10-16T02:15:59;2.80;;;1.60;;
17658;SDS011;8948;51.534;8.262;2022-10-16T02:26:26;8.00;;;1.70;;
17658;SDS011;8948;51.534;8.262;2022-10-16T02:31:31;2.50;;;1.42;;
17658;SDS011;8948;51.534;8.262;2022-10-16T02:36:35;5.10;;;1.58;;
17658;SDS011;8948;51.534;8.262;2022-10-16T02:41:36;4.25;;;1.60;;
17658;SDS011;8948;51.534;8.262;2022-10-16T02:46:37;2.45;;;1.25;;
17658;SDS011;8948;51.534;8.262;2022-10-16T02:51:38;3.22;;;1.50;;
17658;SDS011;8948;51.534;8.262;2022-10-16T02:56:38;5.80;;;1.70;;
17658;SDS011;8948;51.534;8.262;2022-10-16T03:01:39;3.53;;;1.40;;
17658;SDS011;8948;51.534;8.262;2022-10-16T03:06:40;3.97;;;1.80;;
17658;SDS011;8948;51.534;8.262;2022-10-16T03:11:40;5.30;;;1.40;;
17658;SDS011;8948;51.534;8.262;2022-10-16T03:16:41;5.40;;;1.38;;
17658;SDS011;8948;51.534;8.262;2022-10-16T03:21:41;5.95;;;1.20;;
17658;SDS011;8948;51.534;8.262;2022-10-16T03:26:42;3.08;;;1.30;;
17658;SDS011;8948;51.534;8.262;2022-10-16T03:31:42;1.52;;;1.20;;
17658;SDS011;8948;51.534;8.262;2022-10-16T03:36:43;2.65;;;1.17;;
17658;SDS011;8948;51.534;8.262;2022-10-16T03:41:43;6.10;;;1.20;;
17658;SDS011;8948;51.534;8.262;2022-10-16T03:46:44;2.30;;;1.25;;
17658;SDS011;8948;51.534;8.262;2022-10-16T03:51:45;2.13;;;1.52;;
17658;SDS011;8948;51.534;8.262;2022-10-16T03:56:45;3.38;;;1.30;;
17658;SDS011;8948;51.534;8.262;2022-10-16T04:01:46;2.80;;;1.30;;
17658;SDS011;8948;51.534;8.262;2022-10-16T04:06:46;1.45;;;1.33;;
17658;SDS011;8948;51.534;8.262;2022-10-16T04:11:47;1.33;;;1.20;;
17658;SDS011;8948;51.534;8.262;2022-10-16T04:16:47;7.28;;;1.70;;
17658;SDS011;8948;51.534;8.262;2022-10-16T04:21:48;4.35;;;1.52;;
17658;SDS011;8948;51.534;8.262;2022-10-16T04:26:49;6.28;;;1.67;;
17658;SDS011;8948;51.534;8.262;2022-10-16T04:31:49;2.13;;;1.30;;
17658;SDS011;8948;51.534;8.262;2022-10-16T04:36:50;2.30;;;1.73;;
17658;SDS011;8948;51.534;8.262;2022-10-16T04:41:50;3.60;;;1.30;;
17658;SDS011;8948;51.534;8.262;2022-10-16T04:46:51;1.85;;;1.42;;
17658;SDS011;8948;51.534;8.262;2022-10-16T04:51:51;4.80;;;1.25;;
17658;SDS011;8948;51.534;8.262;2022-10-16T04:56:52;4.70;;;1.10;;
17658;SDS011;8948;51.534;8.262;2022-10-16T05:01:52;1.92;;;1.35;;
17658;SDS011;8948;51.534;8.262;2022-10-16T05:06:53;4.65;;;1.40;;
17658;SDS011;8948;51.534;8.262;2022-10-16T05:11:54;4.53;;;1.38;;
17658;SDS011;8948;51.534;8.262;2022-10-16T05:16:54;2.53;;;1.35;;
17658;SDS011;8948;51.534;8.262;2022-10-16T05:21:55;5.70;;;1.60;;
17658;SDS011;8948;51.534;8.262;2022-10-16T05:26:55;1.57;;;1.27;;
17658;SDS011;8948;51.534;8.262;2022-10-16T05:31:56;1.30;;;1.20;;
17658;SDS011;8948;51.534;8.262;2022-10-16T05:36:57;1.92;;;1.20;;
17658;SDS011;8948;51.534;8.262;2022-10-16T05:41:57;5.25;;;1.30;;
17658;SDS011;8948;51.534;8.262;2022-10-16T05:46:58;2.50;;;1.67;;
17658;SDS011;8948;51.534;8.262;2022-10-16T05:51:58;1.25;;;1.15;;
17658;SDS011;8948;51.534;8.262;2022-10-16T05:56:59;4.90;;;1.65;;
17658;SDS011;8948;51.534;8.262;2022-10-16T06:02:00;4.40;;;1.30;;
17658;SDS011;8948;51.534;8.262;2022-10-16T06:07:00;3.58;;;1.27;;
17658;SDS011;8948;51.534;8.262;2022-10-16T06:12:01;1.83;;;1.23;;
17658;SDS011;8948;51.534;8.262;2022-10-16T06:17:01;3.28;;;1.33;;
17658;SDS011;8948;51.534;8.262;2022-10-16T06:22:02;2.88;;;1.38;;
17658;SDS011;8948;51.534;8.262;2022-10-16T06:27:04;2.33;;;1.50;;
17658;SDS011;8948;51.534;8.262;2022-10-16T06:32:05;3.38;;;1.50;;
17658;SDS011;8948;51.534;8.262;2022-10-16T06:37:05;4.07;;;1.52;;
17658;SDS011;8948;51.534;8.262;2022-10-16T06:42:06;3.97;;;1.30;;
17658;SDS011;8948;51.534;8.262;2022-10-16T06:47:06;3.58;;;1.45;;
17658;SDS011;8948;51.534;8.262;2022-10-16T06:52:07;1.40;;;1.30;;
17658;SDS011;8948;51.534;8.262;2022-10-16T06:57:07;1.20;;;1.10;;
17658;SDS011;8948;51.534;8.262;2022-10-16T07:02:08;1.40;;;1.30;;
17658;SDS011;8948;51.534;8.262;2022-10-16T07:07:09;1.92;;;1.30;;
17658;SDS011;8948;51.534;8.262;2022-10-16T07:12:10;1.85;;;1.35;;
17658;SDS011;8948;51.534;8.262;2022-10-16T07:17:10;3.13;;;1.55;;
17658;SDS011;8948;51.534;8.262;2022-10-16T07:22:11;5.20;;;1.25;;
17658;SDS011;8948;51.534;8.262;2022-10-16T07:27:11;2.05;;;1.10;;
17658;SDS011;8948;51.534;8.262;2022-10-16T07:32:12;2.85;;;1.27;;
17658;SDS011;8948;51.534;8.262;2022-10-16T07:37:13;1.80;;;1.10;;
17658;SDS011;8948;51.534;8.262;2022-10-16T07:42:13;3.25;;;1.23;;
17658;SDS011;8948;51.534;8.262;2022-10-16T07:47:14;3.35;;;1.42;;
17658;SDS011;8948;51.534;8.262;2022-10-16T07:52:15;1.98;;;1.20;;
17658;SDS011;8948;51.534;8.262;2022-10-16T07:57:15;4.15;;;1.08;;
17658;SDS011;8948;51.534;8.262;2022-10-16T08:02:19;1.75;;;1.20;;
17658;SDS011;8948;51.534;8.262;2022-10-16T08:07:19;2.30;;;1.25;;
17658;SDS011;8948;51.534;8.262;2022-10-16T08:12:20;2.10;;;1.05;;
17658;SDS011;8948;51.534;8.262;2022-10-16T08:17:20;1.85;;;1.05;;
17658;SDS011;8948;51.534;8.262;2022-10-16T08:22:21;2.30;;;1.23;;
17658;SDS011;8948;51.534;8.262;2022-10-16T08:27:21;4.10;;;0.88;;
17658;SDS011;8948;51.534;8.262;2022-10-16T08:32:22;3.20;;;1.40;;
17658;SDS011;8948;51.534;8.262;2022-10-16T08:37:22;3.53;;;1.23;;
17658;SDS011;8948;51.534;8.262;2022-10-16T08:42:28;5.97;;;1.20;;
17658;SDS011;8948;51.534;8.262;2022-10-16T08:52:53;2.47;;;1.30;;
17658;SDS011;8948;51.534;8.262;2022-10-16T08:57:55;3.03;;;1.48;;
17658;SDS011;8948;51.534;8.262;2022-10-16T09:08:28;3.83;;;1.20;;
17658;SDS011;8948;51.534;8.262;2022-10-16T09:13:44;2.08;;;1.42;;
17658;SDS011;8948;51.534;8.262;2022-10-16T09:24:42;4.10;;;1.38;;
17658;SDS011;8948;51.534;8.262;2022-10-16T09:29:42;1.60;;;1.00;;
17658;SDS011;8948;51.534;8.262;2022-10-16T09:34:53;2.08;;;1.45;;
17658;SDS011;8948;51.534;8.262;2022-10-16T09:39:56;2.88;;;1.40;;
17658;SDS011;8948;51.534;8.262;2022-10-16T09:44:56;2.22;;;1.38;;
17658;SDS011;8948;51.534;8.262;2022-10-16T09:49:58;2.75;;;1.23;;
17658;SDS011;8948;51.534;8.262;2022-10-16T09:55:09;3.80;;;1.00;;
17658;SDS011;8948;51.534;8.262;2022-10-16T10:00:15;4.68;;;1.08;;
17658;SDS011;8948;51.534;8.262;2022-10-16T10:05:27;4.13;;;1.30;;
17658;SDS011;8948;51.534;8.262;2022-10-16T10:10:30;1.63;;;0.95;;
17658;SDS011;8948;51.534;8.262;2022-10-16T10:15:33;5.93;;;1.02;;
17658;SDS011;8948;51.534;8.262;2022-10-16T10:20:36;3.03;;;1.20;;
17658;SDS011;8948;51.534;8.262;2022-10-16T10:25:49;3.22;;;1.10;;
17658;SDS011;8948;51.534;8.262;2022-10-16T10:31:13;2.40;;;0.80;;
17658;SDS011;8948;51.534;8.262;2022-10-16T10:52:49;5.25;;;0.98;;
17658;SDS011;8948;51.534;8.262;2022-10-16T11:08:37;0.93;;;0.60;;
17658;SDS011;8948;51.534;8.262;2022-10-16T11:14:10;1.10;;;0.68;;
17658;SDS011;8948;51.534;8.262;2022-10-16T11:19:39;2.60;;;1.00;;
17658;SDS011;8948;51.534;8.262;2022-10-16T11:30:18;1.77;;;0.70;;
17658;SDS011;8948;51.534;8.262;2022-10-16T11:35:27;3.05;;;0.70;;
17658;SDS011;8948;51.534;8.262;2022-10-16T11:41:03;4.53;;;0.85;;
17658;SDS011;8948;51.534;8.262;2022-10-16T11:46:49;3.63;;;0.93;;
17658;SDS011;8948;51.534;8.262;2022-10-16T11:57:17;9.45;;;1.27;;
17658;SDS011;8948;51.534;8.262;2022-10-16T12:02:32;1.77;;;0.77;;
17658;SDS011;8948;51.534;8.262;2022-10-16T12:08:04;2.53;;;0.77;;
17658;SDS011;8948;51.534;8.262;2022-10-16T12:13:32;1.95;;;0.73;;
17658;SDS011;8948;51.534;8.262;2022-10-16T12:18:41;1.63;;;0.65;;
17658;SDS011;8948;51.534;8.262;2022-10-16T12:23:49;2.75;;;0.88;;
17658;SDS011;8948;51.534;8.262;2022-10-16T12:28:55;1.30;;;0.70;;
17658;SDS011;8948;51.534;8.262;2022-10-16T12:34:14;2.40;;;0.88;;
17658;SDS011;8948;51.534;8.262;2022-10-16T12:39:24;1.05;;;0.50;;
17658;SDS011;8948;51.534;8.262;2022-10-16T12:44:31;2.35;;;0.60;;
17658;SDS011;8948;51.534;8.262;2022-10-16T12:49:37;3.53;;;0.80;;
17658;SDS011;8948;51.534;8.262;2022-10-16T12:54:39;0.88;;;0.60;;
17658;SDS011;8948;51.534;8.262;2022-10-16T13:10:27;2.67;;;1.05;;
17658;SDS011;8948;51.534;8.262;2022-10-16T13:21:13;3.17;;;0.55;;
17658;SDS011;8948;51.534;8.262;2022-10-16T13:26:27;3.65;;;1.00;;
17658;SDS011;8948;51.534;8.262;2022-10-16T13:31:51;1.30;;;0.50;;
17658;SDS011;8948;51.534;8.262;2022-10-16T13:36:52;9.27;;;0.80;;
17658;SDS011;8948;51.534;8.262;2022-10-16T13:47:05;5.57;;;0.50;;
17658;SDS011;8948;51.534;8.262;2022-10-16T13:52:05;2.00;;;0.73;;
17658;SDS011;8948;51.534;8.262;2022-10-16T13:57:16;2.17;;;0.63;;
17658;SDS011;8948;51.534;8.262;2022-10-16T14:02:20;5.65;;;0.63;;
17658;SDS011;8948;51.534;8.262;2022-10-16T14:07:34;1.67;;;0.52;;
17658;SDS011;8948;51.534;8.262;2022-10-16T14:12:36;2.78;;;0.60;;
17658;SDS011;8948;51.534;8.262;2022-10-16T14:17:37;2.03;;;0.60;;
17658;SDS011;8948;51.534;8.262;2022-10-16T14:22:45;4.28;;;0.70;;
17658;SDS011;8948;51.534;8.262;2022-10-16T14:38:04;1.20;;;0.50;;
17658;SDS011;8948;51.534;8.262;2022-10-16T14:43:06;1.60;;;0.68;;
17658;SDS011;8948;51.534;8.262;2022-10-16T14:48:16;1.65;;;0.52;;
17658;SDS011;8948;51.534;8.262;2022-10-16T14:53:18;2.47;;;0.57;;
17658;SDS011;8948;51.534;8.262;2022-10-16T14:58:20;0.80;;;0.60;;
17658;SDS011;8948;51.534;8.262;2022-10-16T15:03:22;1.88;;;0.65;;
17658;SDS011;8948;51.534;8.262;2022-10-16T15:08:23;1.88;;;0.60;;
17658;SDS011;8948;51.534;8.262;2022-10-16T15:13:23;2.05;;;0.50;;
17658;SDS011;8948;51.534;8.262;2022-10-16T15:18:24;2.35;;;0.73;;
17658;SDS011;8948;51.534;8.262;2022-10-16T15:23:25;2.38;;;0.80;;
17658;SDS011;8948;51.534;8.262;2022-10-16T15:28:25;2.30;;;0.68;;
17658;SDS011;8948;51.534;8.262;2022-10-16T15:33:27;2.47;;;0.82;;
17658;SDS011;8948;51.534;8.262;2022-10-16T15:38:32;2.58;;;0.70;;
17658;SDS011;8948;51.534;8.262;2022-10-16T15:43:33;4.35;;;0.73;;
17658;SDS011;8948;51.534;8.262;2022-10-16T15:48:33;1.50;;;0.60;;
17658;SDS011;8948;51.534;8.262;2022-10-16T15:53:34;2.10;;;0.70;;
17658;SDS011;8948;51.534;8.262;2022-10-16T15:58:35;1.45;;;0.70;;
17658;SDS011;8948;51.534;8.262;2022-10-16T16:03:36;3.97;;;0.80;;
17658;SDS011;8948;51.534;8.262;2022-10-16T16:08:40;1.60;;;0.60;;
17658;SDS011;8948;51.534;8.262;2022-10-16T16:13:41;3.65;;;0.60;;
17658;SDS011;8948;51.534;8.262;2022-10-16T16:18:42;2.25;;;0.60;;
17658;SDS011;8948;51.534;8.262;2022-10-16T16:23:43;0.65;;;0.50;;
17658;SDS011;8948;51.534;8.262;2022-10-16T16:28:43;1.17;;;0.70;;
17658;SDS011;8948;51.534;8.262;2022-10-16T16:33:44;2.22;;;0.73;;
17658;SDS011;8948;51.534;8.262;2022-10-16T16:38:45;1.98;;;0.77;;
17658;SDS011;8948;51.534;8.262;2022-10-16T16:43:46;4.43;;;0.85;;
17658;SDS011;8948;51.534;8.262;2022-10-16T16:48:47;1.85;;;0.60;;
17658;SDS011;8948;51.534;8.262;2022-10-16T16:53:50;3.38;;;1.25;;
17658;SDS011;8948;51.534;8.262;2022-10-16T16:58:53;5.20;;;0.90;;
17658;SDS011;8948;51.534;8.262;2022-10-16T17:03:56;7.40;;;1.00;;
17658;SDS011;8948;51.534;8.262;2022-10-16T17:08:57;1.35;;;0.70;;
17658;SDS011;8948;51.534;8.262;2022-10-16T17:14:00;6.35;;;1.00;;
17658;SDS011;8948;51.534;8.262;2022-10-16T17:19:06;7.28;;;0.80;;
17658;SDS011;8948;51.534;8.262;2022-10-16T17:24:08;3.25;;;1.00;;
17658;SDS011;8948;51.534;8.262;2022-10-16T17:29:10;6.68;;;1.20;;
17658;SDS011;8948;51.534;8.262;2022-10-16T17:34:12;5.15;;;0.98;;
17658;SDS011;8948;51.534;8.262;2022-10-16T17:39:13;6.45;;;1.20;;
17658;SDS011;8948;51.534;8.262;2022-10-16T17:44:16;2.65;;;1.15;;
17658;SDS011;8948;51.534;8.262;2022-10-16T17:49:20;5.15;;;1.20;;
17658;SDS011;8948;51.534;8.262;2022-10-16T17:54:21;2.53;;;1.20;;
17658;SDS011;8948;51.534;8.262;2022-10-16T17:59:21;3.55;;;1.10;;
17658;SDS011;8948;51.534;8.262;2022-10-16T18:04:22;6.65;;;1.80;;
17658;SDS011;8948;51.534;8.262;2022-10-16T18:09:22;2.08;;;1.48;;
17658;SDS011;8948;51.534;8.262;2022-10-16T18:14:23;5.05;;;1.30;;
17658;SDS011;8948;51.534;8.262;2022-10-16T18:19:24;5.10;;;1.58;;
17658;SDS011;8948;51.534;8.262;2022-10-16T18:24:25;1.20;;;1.10;;
17658;SDS011;8948;51.534;8.262;2022-10-16T18:29:26;7.60;;;2.25;;
17658;SDS011;8948;51.534;8.262;2022-10-16T18:34:27;7.07;;;1.40;;
17658;SDS011;8948;51.534;8.262;2022-10-16T18:39:27;3.58;;;1.25;;
17658;SDS011;8948;51.534;8.262;2022-10-16T18:44:28;7.72;;;1.30;;
17658;SDS011;8948;51.534;8.262;2022-10-16T18:49:30;5.78;;;1.50;;
17658;SDS011;8948;51.534;8.262;2022-10-16T18:54:30;7.43;;;1.40;;
17658;SDS011;8948;51.534;8.262;2022-10-16T18:59:31;4.45;;;1.23;;
17658;SDS011;8948;51.534;8.262;2022-10-16T19:04:31;3.53;;;1.50;;
17658;SDS011;8948;51.534;8.262;2022-10-16T19:09:32;5.85;;;1.30;;
17658;SDS011;8948;51.534;8.262;2022-10-16T19:14:33;5.55;;;1.02;;
17658;SDS011;8948;51.534;8.262;2022-10-16T19:19:33;2.78;;;1.10;;
17658;SDS011;8948;51.534;8.262;2022-10-16T19:24:34;4.35;;;1.33;;
17658;SDS011;8948;51.534;8.262;2022-10-16T19:29:35;4.22;;;1.40;;
17658;SDS011;8948;51.534;8.262;2022-10-16T19:34:35;3.35;;;1.33;;
17658;SDS011;8948;51.534;8.262;2022-10-16T19:39:36;3.58;;;1.00;;
17658;SDS011;8948;51.534;8.262;2022-10-16T19:44:37;3.05;;;0.80;;
17658;SDS011;8948;51.534;8.262;2022-10-16T19:49:37;1.00;;;0.90;;
17658;SDS011;8948;51.534;8.262;2022-10-16T19:54:38;1.85;;;1.17;;
17658;SDS011;8948;51.534;8.262;2022-10-16T19:59:38;4.15;;;1.77;;
17658;SDS011;8948;51.534;8.262;2022-10-16T20:04:39;6.97;;;1.08;;
17658;SDS011;8948;51.534;8.262;2022-10-16T20:09:39;3.10;;;1.20;;
17658;SDS011;8948;51.534;8.262;2022-10-16T20:14:40;6.05;;;1.30;;
17658;SDS011;8948;51.534;8.262;2022-10-16T20:19:40;4.13;;;1.35;;
17658;SDS011;8948;51.534;8.262;2022-10-16T20:24:41;1.50;;;1.25;;
17658;SDS011;8948;51.534;8.262;2022-10-16T20:29:42;6.00;;;1.73;;
17658;SDS011;8948;51.534;8.262;2022-10-16T20:34:42;3.38;;;1.63;;
17658;SDS011;8948;51.534;8.262;2022-10-16T20:39:48;3.58;;;1.20;;
17658;SDS011;8948;51.534;8.262;2022-10-16T20:44:48;7.80;;;1.30;;
17658;SDS011;8948;51.534;8.262;2022-10-16T20:49:49;3.20;;;1.40;;
17658;SDS011;8948;51.534;8.262;2022-10-16T20:54:51;3.80;;;1.40;;
17658;SDS011;8948;51.534;8.262;2022-10-16T20:59:52;5.82;;;1.63;;
17658;SDS011;8948;51.534;8.262;2022-10-16T21:04:54;1.95;;;1.42;;
17658;SDS011;8948;51.534;8.262;2022-10-16T21:09:55;6.82;;;1.60;;
17658;SDS011;8948;51.534;8.262;2022-10-16T21:14:55;3.47;;;1.65;;
17658;SDS011;8948;51.534;8.262;2022-10-16T21:19:56;2.88;;;1.42;;
17658;SDS011;8948;51.534;8.262;2022-10-16T21:24:57;1.88;;;1.40;;
17658;SDS011;8948;51.534;8.262;2022-10-16T21:29:57;4.60;;;1.20;;
17658;SDS011;8948;51.534;8.262;2022-10-16T21:34:58;7.20;;;1.52;;
17658;SDS011;8948;51.534;8.262;2022-10-16T21:39:58;2.60;;;1.50;;
17658;SDS011;8948;51.534;8.262;2022-10-16T21:44:59;1.45;;;1.35;;
17658;SDS011;8948;51.534;8.262;2022-10-16T21:50:00;4.22;;;1.45;;
17658;SDS011;8948;51.534;8.262;2022-10-16T21:55:00;4.68;;;1.45;;
17658;SDS011;8948;51.534;8.262;2022-10-16T22:00:01;10.45;;;1.73;;
17658;SDS011;8948;51.534;8.262;2022-10-16T22:05:02;3.10;;;1.42;;
17658;SDS011;8948;51.534;8.262;2022-10-16T22:10:03;3.53;;;1.50;;
17658;SDS011;8948;51.534;8.262;2022-10-16T22:15:04;4.38;;;1.20;;
17658;SDS011;8948;51.534;8.262;2022-10-16T22:20:05;4.13;;;1.38;;
17658;SDS011;8948;51.534;8.262;2022-10-16T22:25:07;6.13;;;1.60;;
17658;SDS011;8948;51.534;8.262;2022-10-16T22:30:07;3.72;;;1.25;;
17658;SDS011;8948;51.534;8.262;2022-10-16T22:35:08;6.93;;;1.60;;
17658;SDS011;8948;51.534;8.262;2022-10-16T22:40:10;8.25;;;1.77;;
17658;SDS011;8948;51.534;8.262;2022-10-16T22:45:11;10.38;;;2.40;;
17658;SDS011;8948;51.534;8.262;2022-10-16T22:50:12;4.65;;;2.33;;
17658;SDS011;8948;51.534;8.262;2022-10-16T22:55:12;6.40;;;3.60;;
17658;SDS011;8948;51.534;8.262;2022-10-16T23:00:14;18.73;;;4.25;;
17658;SDS011;8948;51.534;8.262;2022-10-16T23:05:17;8.85;;;3.97;;
17658;SDS011;8948;51.534;8.262;2022-10-16T23:10:18;8.35;;;3.67;;
17658;SDS011;8948;51.534;8.262;2022-10-16T23:15:18;9.50;;;3.42;;
17658;SDS011;8948;51.534;8.262;2022-10-16T23:20:19;7.40;;;3.30;;
17658;SDS011;8948;51.534;8.262;2022-10-16T23:25:19;9.32;;;3.33;;
17658;SDS011;8948;51.534;8.262;2022-10-16T23:30:20;4.13;;;3.08;;
17658;SDS011;8948;51.534;8.262;2022-10-16T23:35:21;5.22;;;3.50;;
17658;SDS011;8948;51.534;8.262;2022-10-16T23:40:21;8.60;;;3.05;;
17658;SDS011;8948;51.534;8.262;2022-10-16T23:45:22;9.23;;;3.10;;
17658;SDS011;8948;51.534;8.262;2022-10-16T23:50:22;5.60;;;3.17;;
17658;SDS011;8948;51.534;8.262;2022-10-16T23:55:23;6.78;;;3.20;;
